createdAt,value
2018-04-24T00:02:16.621Z,11.81
2018-04-24T00:04:45.021Z,11.80
2018-04-24T00:07:13.422Z,11.78
2018-04-24T00:09:41.829Z,11.73
2018-04-24T00:12:10.305Z,11.70
2018-04-24T00:14:38.666Z,11.66
2018-04-24T00:17:07.036Z,11.68
2018-04-24T00:19:35.360Z,11.62
2018-04-24T00:22:03.737Z,11.63
2018-04-24T00:24:32.064Z,11.64
2018-04-24T00:27:00.410Z,11.65
2018-04-24T00:29:28.780Z,11.62
2018-04-24T00:31:57.117Z,11.63
2018-04-24T00:34:25.464Z,11.64
2018-04-24T00:36:53.872Z,11.61
2018-04-24T00:39:22.191Z,11.59
2018-04-24T00:41:50.545Z,11.52
2018-04-24T00:44:19.178Z,11.50
2018-04-24T00:46:47.889Z,11.48
2018-04-24T00:49:17.515Z,11.41
2018-04-24T00:51:46.339Z,11.33
2018-04-24T00:54:14.765Z,11.31
2018-04-24T00:56:43.153Z,11.27
2018-04-24T00:59:11.490Z,11.19
2018-04-24T01:01:39.862Z,11.18
2018-04-24T01:04:08.207Z,11.13
2018-04-24T01:06:36.535Z,11.12
2018-04-24T01:09:04.892Z,11.09
2018-04-24T01:11:33.231Z,11.03
2018-04-24T01:14:01.573Z,11.04
2018-04-24T01:16:29.904Z,11.02
2018-04-24T01:18:58.360Z,10.97
2018-04-24T01:21:26.693Z,10.94
2018-04-24T01:23:55.040Z,10.93
2018-04-24T01:26:23.377Z,10.91
2018-04-24T01:28:51.785Z,10.87
2018-04-24T01:31:20.119Z,10.80
2018-04-24T01:33:48.493Z,10.78
2018-04-24T01:36:16.834Z,10.71
2018-04-24T01:38:45.243Z,10.68
2018-04-24T01:41:13.643Z,10.66
2018-04-24T01:43:42.015Z,10.60
2018-04-24T01:46:10.352Z,10.61
2018-04-24T01:48:38.680Z,10.64
2018-04-24T01:51:07.037Z,10.58
2018-04-24T01:53:35.372Z,10.61
2018-04-24T01:56:03.719Z,10.56
2018-04-24T01:58:32.069Z,10.57
2018-04-24T02:01:00.461Z,10.52
2018-04-24T02:03:28.794Z,10.51
2018-04-24T02:05:57.210Z,10.52
2018-04-24T02:08:25.636Z,10.49
2018-04-24T02:10:54.080Z,10.48
2018-04-24T02:13:22.417Z,10.47
2018-04-24T02:15:51.059Z,10.38
2018-04-24T02:18:19.524Z,10.35
2018-04-24T02:20:47.886Z,10.35
2018-04-24T02:23:16.218Z,10.35
2018-04-24T02:25:44.582Z,10.32
2018-04-24T02:28:12.964Z,10.33
2018-04-24T02:30:41.333Z,10.29
2018-04-24T02:33:09.788Z,10.27
2018-04-24T02:35:38.102Z,10.29
2018-04-24T02:38:07.541Z,10.24
2018-04-24T02:40:35.905Z,10.21
2018-04-24T02:43:04.281Z,10.15
2018-04-24T02:45:32.605Z,10.12
2018-04-24T02:48:00.945Z,10.12
2018-04-24T02:50:29.344Z,10.08
2018-04-24T02:52:57.709Z,10.07
2018-04-24T02:55:26.042Z,9.99
2018-04-24T02:57:54.375Z,9.99
2018-04-24T03:00:22.730Z,9.95
2018-04-24T03:02:51.065Z,9.93
2018-04-24T03:05:19.404Z,9.86
2018-04-24T03:07:47.737Z,9.92
2018-04-24T03:10:16.080Z,9.91
2018-04-24T03:12:44.407Z,9.93
2018-04-24T03:15:12.754Z,9.92
2018-04-24T03:17:41.097Z,9.89
2018-04-24T03:20:09.437Z,9.85
2018-04-24T03:22:37.773Z,9.78
2018-04-24T03:25:06.101Z,9.82
2018-04-24T03:27:34.463Z,9.82
2018-04-24T03:30:02.779Z,9.84
2018-04-24T03:32:31.119Z,9.83
2018-04-24T03:34:59.440Z,9.82
2018-04-24T03:37:27.784Z,9.77
2018-04-24T03:39:56.124Z,9.74
2018-04-24T03:42:24.459Z,9.76
2018-04-24T03:44:52.768Z,9.72
2018-04-24T03:47:21.127Z,9.73
2018-04-24T03:49:49.450Z,9.71
2018-04-24T03:52:17.776Z,9.74
2018-04-24T03:54:46.108Z,9.77
2018-04-24T03:57:14.467Z,9.79
2018-04-24T03:59:42.793Z,9.79
2018-04-24T04:02:11.133Z,9.80
2018-04-24T04:04:39.467Z,9.81
2018-04-24T04:07:07.789Z,9.84
2018-04-24T04:09:36.181Z,9.82
2018-04-24T04:12:04.529Z,9.79
2018-04-24T04:14:33.435Z,9.84
2018-04-24T04:17:13.539Z,9.88
2018-04-24T04:19:53.721Z,9.92
2018-04-24T04:22:34.067Z,10.00
2018-04-24T04:25:02.546Z,10.05
2018-04-24T04:27:30.874Z,10.15
2018-04-24T04:30:00.057Z,10.26
2018-04-24T04:32:28.392Z,10.34
2018-04-24T04:34:56.747Z,10.43
2018-04-24T04:37:25.069Z,10.58
2018-04-24T04:39:53.439Z,10.64
2018-04-24T04:42:21.770Z,10.74
2018-04-24T04:44:50.127Z,10.91
2018-04-24T04:47:18.452Z,10.97
2018-04-24T04:49:46.804Z,11.01
2018-04-24T04:52:15.161Z,11.06
2018-04-24T04:54:43.535Z,11.12
2018-04-24T04:57:11.873Z,11.08
2018-04-24T04:59:40.351Z,11.18
2018-04-24T05:02:08.701Z,11.17
2018-04-24T05:04:37.039Z,11.27
2018-04-24T05:07:05.379Z,11.34
2018-04-24T05:09:33.717Z,11.33
2018-04-24T05:12:02.098Z,11.40
2018-04-24T05:14:30.410Z,11.45
2018-04-24T05:16:58.790Z,11.54
2018-04-24T05:19:27.146Z,11.67
2018-04-24T05:21:58.021Z,11.66
2018-04-24T05:24:26.349Z,11.69
2018-04-24T05:26:54.679Z,11.70
2018-04-24T05:29:23.013Z,11.82
2018-04-24T05:31:51.368Z,11.84
2018-04-24T05:34:19.703Z,11.90
2018-04-24T05:36:48.061Z,12.09
2018-04-24T05:39:16.401Z,12.57
2018-04-24T05:41:44.729Z,13.07
2018-04-24T05:44:13.074Z,13.74
2018-04-24T05:46:41.482Z,14.11
2018-04-24T05:49:09.835Z,14.42
2018-04-24T05:51:38.163Z,14.70
2018-04-24T05:54:06.521Z,14.35
2018-04-24T05:56:34.870Z,14.21
2018-04-24T05:59:03.235Z,14.27
2018-04-24T06:01:31.575Z,14.58
2018-04-24T06:03:59.965Z,14.65
2018-04-24T06:06:28.534Z,15.40
2018-04-24T06:08:56.964Z,15.79
2018-04-24T06:11:26.265Z,16.04
2018-04-24T06:13:54.624Z,16.55
2018-04-24T06:16:22.959Z,16.56
2018-04-24T06:18:51.317Z,16.73
2018-04-24T06:21:19.651Z,17.62
2018-04-24T06:23:48.000Z,17.93
2018-04-24T06:26:16.358Z,18.05
2018-04-24T06:28:44.708Z,18.05
2018-04-24T06:31:13.044Z,18.81
2018-04-24T06:33:41.384Z,18.67
2018-04-24T06:36:09.743Z,18.30
2018-04-24T06:38:38.065Z,17.75
2018-04-24T06:41:06.525Z,17.03
2018-04-24T06:43:34.875Z,16.72
2018-04-24T06:46:03.209Z,16.28
2018-04-24T06:48:31.554Z,16.02
2018-04-24T06:50:59.898Z,16.15
2018-04-24T06:53:28.242Z,16.27
2018-04-24T06:55:56.662Z,15.84
2018-04-24T06:58:24.994Z,16.08
2018-04-24T07:00:53.371Z,17.18
2018-04-24T07:03:21.696Z,17.37
2018-04-24T07:05:50.020Z,18.30
2018-04-24T07:08:18.359Z,18.82
2018-04-24T07:10:46.742Z,20.04
2018-04-24T07:13:15.099Z,20.60
2018-04-24T07:15:43.575Z,20.01
2018-04-24T07:18:11.901Z,20.79
2018-04-24T07:20:40.241Z,21.89
2018-04-24T07:23:08.630Z,22.68
2018-04-24T07:25:36.961Z,22.34
2018-04-24T07:28:05.306Z,22.25
2018-04-24T07:30:33.729Z,21.31
2018-04-24T07:33:02.152Z,21.71
2018-04-24T07:35:31.437Z,23.10
2018-04-24T07:37:59.780Z,23.73
2018-04-24T07:40:28.127Z,24.99
2018-04-24T07:42:56.465Z,25.43
2018-04-24T07:45:24.811Z,26.38
2018-04-24T07:47:53.216Z,25.83
2018-04-24T07:50:21.556Z,24.28
2018-04-24T07:52:49.895Z,24.13
2018-04-24T07:55:18.252Z,24.36
2018-04-24T07:57:46.595Z,23.57
2018-04-24T08:00:14.996Z,23.21
2018-04-24T08:02:43.307Z,22.89
2018-04-24T08:05:11.657Z,23.28
2018-04-24T08:07:39.999Z,23.23
2018-04-24T08:10:08.331Z,23.40
2018-04-24T08:12:36.669Z,23.30
2018-04-24T08:15:05.017Z,23.97
2018-04-24T08:17:33.351Z,22.90
2018-04-24T08:20:01.692Z,23.58
2018-04-24T08:22:39.582Z,23.93
2018-04-24T08:25:08.095Z,24.22
2018-04-24T08:27:36.433Z,24.57
2018-04-24T08:30:04.786Z,24.08
2018-04-24T08:32:33.110Z,23.20
2018-04-24T08:35:01.468Z,23.32
2018-04-24T08:37:29.810Z,23.44
2018-04-24T08:39:58.376Z,21.78
2018-04-24T08:42:26.707Z,21.26
2018-04-24T08:44:55.037Z,21.23
2018-04-24T08:47:23.404Z,21.41
2018-04-24T08:49:51.843Z,21.17
2018-04-24T08:52:20.183Z,21.29
2018-04-24T08:54:48.536Z,22.02
2018-04-24T08:57:16.875Z,22.58
2018-04-24T08:59:45.217Z,22.89
2018-04-24T09:02:13.571Z,22.36
2018-04-24T09:04:46.326Z,22.87
2018-04-24T09:07:14.661Z,22.75
2018-04-24T09:09:43.003Z,22.33
2018-04-24T09:12:11.353Z,22.00
2018-04-24T09:14:39.707Z,23.15
2018-04-24T09:17:08.041Z,23.90
2018-04-24T09:19:36.377Z,23.90
2018-04-24T09:22:04.712Z,23.54
2018-04-24T09:24:33.037Z,22.08
2018-04-24T09:27:02.270Z,22.43
2018-04-24T09:29:30.558Z,22.66
2018-04-24T09:31:58.910Z,23.09
2018-04-24T09:34:27.240Z,22.77
2018-04-24T09:36:55.622Z,22.54
2018-04-24T09:39:24.012Z,22.01
2018-04-24T09:41:52.340Z,22.54
2018-04-24T09:44:20.697Z,22.78
2018-04-24T09:46:49.034Z,23.34
2018-04-24T09:49:17.368Z,23.06
2018-04-24T09:51:45.773Z,22.97
2018-04-24T09:54:14.182Z,23.03
2018-04-24T09:56:42.779Z,22.90
2018-04-24T09:59:11.112Z,22.96
2018-04-24T10:01:39.436Z,22.54
2018-04-24T10:04:07.781Z,22.81
2018-04-24T10:06:36.130Z,22.80
2018-04-24T10:09:04.460Z,22.58
2018-04-24T10:11:32.796Z,22.86
2018-04-24T10:14:01.138Z,22.58
2018-04-24T10:16:29.452Z,22.84
2018-04-24T10:18:57.785Z,23.55
2018-04-24T10:21:26.107Z,23.62
2018-04-24T10:23:55.131Z,22.43
2018-04-24T10:26:23.464Z,22.03
2018-04-24T10:28:51.793Z,22.68
2018-04-24T10:31:20.124Z,22.86
2018-04-24T10:33:48.458Z,22.40
2018-04-24T10:36:16.799Z,22.25
2018-04-24T10:38:45.147Z,22.41
2018-04-24T10:41:13.829Z,22.48
2018-04-24T10:43:42.250Z,22.58
2018-04-24T10:46:10.541Z,21.81
2018-04-24T10:48:38.895Z,21.74
2018-04-24T10:51:11.795Z,22.04
2018-04-24T10:53:42.441Z,22.09
2018-04-24T10:56:10.763Z,22.69
2018-04-24T10:58:39.073Z,22.37
2018-04-24T11:01:08.643Z,22.76
2018-04-24T11:03:37.144Z,23.62
2018-04-24T11:06:05.497Z,23.93
2018-04-24T11:08:33.826Z,23.75
2018-04-24T11:11:04.132Z,23.16
2018-04-24T11:13:33.489Z,23.08
2018-04-24T11:16:01.839Z,23.41
2018-04-24T11:18:30.158Z,23.34
2018-04-24T11:20:59.090Z,22.89
2018-04-24T11:23:27.426Z,22.86
2018-04-24T11:25:55.811Z,23.23
2018-04-24T11:28:24.116Z,23.89
2018-04-24T11:30:55.106Z,24.01
2018-04-24T11:33:23.486Z,23.72
2018-04-24T11:35:51.874Z,23.32
2018-04-24T11:38:20.178Z,23.08
2018-04-24T11:40:49.668Z,22.70
2018-04-24T11:43:18.535Z,23.14
2018-04-24T11:45:46.861Z,22.83
2018-04-24T11:48:15.172Z,22.92
2018-04-24T11:50:45.707Z,22.76
2018-04-24T11:53:14.080Z,22.63
2018-04-24T11:55:42.419Z,22.49
2018-04-24T11:58:10.732Z,22.10
2018-04-24T12:00:39.662Z,22.23
2018-04-24T12:03:08.200Z,22.14
2018-04-24T12:05:36.523Z,22.09
2018-04-24T12:08:04.858Z,22.42
2018-04-24T12:10:33.168Z,22.62
2018-04-24T12:13:01.501Z,22.72
2018-04-24T12:15:29.824Z,22.45
2018-04-24T12:17:58.146Z,22.18
2018-04-24T12:20:26.596Z,21.56
2018-04-24T12:22:54.897Z,21.48
2018-04-24T12:25:23.340Z,21.23
2018-04-24T12:27:51.653Z,21.53
2018-04-24T12:30:20.808Z,21.50
2018-04-24T12:32:49.141Z,21.46
2018-04-24T12:35:17.463Z,21.70
2018-04-24T12:37:45.794Z,22.04
2018-04-24T12:40:15.217Z,21.88
2018-04-24T12:42:43.547Z,22.16
2018-04-24T12:45:11.951Z,22.32
2018-04-24T12:47:40.255Z,22.34
2018-04-24T12:50:08.658Z,21.98
2018-04-24T12:52:36.995Z,22.02
2018-04-24T12:55:05.317Z,21.85
2018-04-24T12:57:33.631Z,21.74
2018-04-24T13:00:01.957Z,21.61
2018-04-24T13:02:30.278Z,21.71
2018-04-24T13:04:58.619Z,21.68
2018-04-24T13:07:26.926Z,21.75
2018-04-24T13:09:55.269Z,21.87
2018-04-24T13:12:23.605Z,21.96
2018-04-24T13:14:51.993Z,21.93
2018-04-24T13:17:20.377Z,21.65
2018-04-24T13:19:48.821Z,21.68
2018-04-24T13:22:17.167Z,21.62
2018-04-24T13:24:45.487Z,21.44
2018-04-24T13:27:13.848Z,21.23
2018-04-24T13:29:42.237Z,20.90
2018-04-24T13:32:10.641Z,20.88
2018-04-24T13:34:38.946Z,20.84
2018-04-24T13:37:07.288Z,20.75
2018-04-24T13:39:35.594Z,20.83
2018-04-24T13:42:03.976Z,20.85
2018-04-24T13:44:32.249Z,20.93
2018-04-24T13:47:01.467Z,21.04
2018-04-24T13:49:29.784Z,20.92
2018-04-24T13:51:58.174Z,21.03
2018-04-24T13:54:26.582Z,21.14
2018-04-24T13:56:54.941Z,21.06
2018-04-24T13:59:23.249Z,20.85
2018-04-24T14:01:51.584Z,20.80
2018-04-24T14:04:19.890Z,20.69
2018-04-24T14:06:48.212Z,20.70
2018-04-24T14:09:16.530Z,20.82
2018-04-24T14:11:44.851Z,20.82
2018-04-24T14:14:13.169Z,20.78
2018-04-24T14:16:41.475Z,20.80
2018-04-24T14:19:09.791Z,20.91
2018-04-24T14:21:38.138Z,20.78
2018-04-24T14:24:06.432Z,20.71
2018-04-24T14:26:34.757Z,20.61
2018-04-24T14:29:03.077Z,20.69
2018-04-24T14:31:31.400Z,20.59
2018-04-24T14:33:59.726Z,20.45
2018-04-24T14:36:28.097Z,20.43
2018-04-24T14:38:56.408Z,20.32
2018-04-24T14:41:24.724Z,20.18
2018-04-24T14:43:53.055Z,20.14
2018-04-24T14:46:21.379Z,20.14
2018-04-24T14:48:49.736Z,20.12
2018-04-24T14:51:18.057Z,19.96
2018-04-24T14:53:46.392Z,19.81
2018-04-24T14:56:14.723Z,19.86
2018-04-24T14:58:43.061Z,19.83
2018-04-24T15:01:11.442Z,19.92
2018-04-24T15:03:41.134Z,19.84
2018-04-24T15:06:09.494Z,19.91
2018-04-24T15:08:37.799Z,20.02
2018-04-24T15:11:06.205Z,19.94
2018-04-24T15:13:35.192Z,19.93
2018-04-24T15:16:03.528Z,20.10
2018-04-24T15:18:31.842Z,19.98
2018-04-24T15:21:00.158Z,19.83
2018-04-24T15:23:28.490Z,19.63
2018-04-24T15:25:56.810Z,19.69
2018-04-24T15:28:25.152Z,19.67
2018-04-24T15:30:53.510Z,19.57
2018-04-24T15:33:21.935Z,19.38
2018-04-24T15:35:50.279Z,19.44
2018-04-24T15:38:18.607Z,19.52
2018-04-24T15:40:46.951Z,19.24
2018-04-24T15:43:15.273Z,19.08
2018-04-24T15:45:43.583Z,18.96
2018-04-24T15:48:11.940Z,18.74
2018-04-24T15:50:40.282Z,18.53
2018-04-24T15:53:08.611Z,18.41
2018-04-24T15:55:36.929Z,18.29
2018-04-24T15:58:05.243Z,18.18
2018-04-24T16:00:33.550Z,18.20
2018-04-24T16:03:01.885Z,18.22
2018-04-24T16:05:30.213Z,18.18
2018-04-24T16:07:58.546Z,18.22
2018-04-24T16:10:26.854Z,18.25
2018-04-24T16:12:55.252Z,18.16
2018-04-24T16:15:23.648Z,18.14
2018-04-24T16:17:51.966Z,18.24
2018-04-24T16:20:20.279Z,18.27
2018-04-24T16:22:49.456Z,18.20
2018-04-24T16:25:17.776Z,18.18
2018-04-24T16:27:46.109Z,18.16
2018-04-24T16:30:14.428Z,18.16
2018-04-24T16:32:42.749Z,18.04
2018-04-24T16:35:11.075Z,18.06
2018-04-24T16:37:39.524Z,17.89
2018-04-24T16:40:07.851Z,17.98
2018-04-24T16:42:36.183Z,17.89
2018-04-24T16:45:04.550Z,17.89
2018-04-24T16:47:32.859Z,17.74
2018-04-24T16:50:01.193Z,17.70
2018-04-24T16:52:29.503Z,17.67
2018-04-24T16:54:57.826Z,17.59
2018-04-24T16:57:26.149Z,17.53
2018-04-24T16:59:54.482Z,17.58
2018-04-24T17:02:25.836Z,17.44
2018-04-24T17:04:54.175Z,17.48
2018-04-24T17:07:22.480Z,17.50
2018-04-24T17:09:50.803Z,17.54
2018-04-24T17:12:19.719Z,17.47
2018-04-24T17:14:48.065Z,17.48
2018-04-24T17:17:16.422Z,17.45
2018-04-24T17:19:44.732Z,17.38
2018-04-24T17:22:13.103Z,17.36
2018-04-24T17:24:43.095Z,17.38
2018-04-24T17:27:11.420Z,17.35
2018-04-24T17:29:39.747Z,17.38
2018-04-24T17:32:08.067Z,17.37
2018-04-24T17:34:36.393Z,17.33
2018-04-24T17:37:04.721Z,17.32
2018-04-24T17:39:33.102Z,17.30
2018-04-24T17:42:01.404Z,17.19
2018-04-24T17:44:29.739Z,17.17
2018-04-24T17:46:58.108Z,17.14
2018-04-24T17:49:26.419Z,17.07
2018-04-24T17:51:54.767Z,17.03
2018-04-24T17:54:23.082Z,17.03
2018-04-24T17:56:51.436Z,17.01
2018-04-24T17:59:19.805Z,17.04
2018-04-24T18:01:48.117Z,17.02
2018-04-24T18:04:16.441Z,17.06
2018-04-24T18:06:44.747Z,16.98
2018-04-24T18:09:13.106Z,16.93
2018-04-24T18:11:41.440Z,16.79
2018-04-24T18:14:09.781Z,16.78
2018-04-24T18:16:38.075Z,16.84
2018-04-24T18:19:06.417Z,16.82
2018-04-24T18:21:34.797Z,16.79
2018-04-24T18:24:03.076Z,16.67
2018-04-24T18:26:31.384Z,16.69
2018-04-24T18:28:59.719Z,16.66
2018-04-24T18:31:28.027Z,16.64
2018-04-24T18:33:56.363Z,16.60
2018-04-24T18:36:24.672Z,16.50
2018-04-24T18:38:53.019Z,16.43
2018-04-24T18:41:21.331Z,16.25
2018-04-24T18:43:49.657Z,16.11
2018-04-24T18:46:17.978Z,16.01
2018-04-24T18:48:46.336Z,15.92
2018-04-24T18:51:14.646Z,15.82
2018-04-24T18:53:42.972Z,15.72
2018-04-24T18:56:11.283Z,15.63
2018-04-24T18:58:39.618Z,15.56
2018-04-24T19:01:07.923Z,15.45
2018-04-24T19:03:36.256Z,15.39
2018-04-24T19:06:04.576Z,15.38
2018-04-24T19:08:32.889Z,15.28
2018-04-24T19:11:05.176Z,15.28
2018-04-24T19:13:33.478Z,15.28
2018-04-24T19:16:01.823Z,15.18
2018-04-24T19:18:35.712Z,15.16
2018-04-24T19:21:04.049Z,15.13
2018-04-24T19:23:32.361Z,15.02
2018-04-24T19:26:00.695Z,15.02
2018-04-24T19:28:29.041Z,14.95
2018-04-24T19:30:57.347Z,14.96
2018-04-24T19:33:25.668Z,14.89
2018-04-24T19:35:54.003Z,14.81
2018-04-24T19:38:22.320Z,14.75
2018-04-24T19:40:56.302Z,14.67
2018-04-24T19:43:24.762Z,14.59
2018-04-24T19:45:53.898Z,14.56
2018-04-24T19:48:28.006Z,14.46
2018-04-24T19:50:56.340Z,14.42
2018-04-24T19:53:24.645Z,14.35
2018-04-24T19:55:52.988Z,14.27
2018-04-24T19:58:21.300Z,14.23
2018-04-24T20:00:49.621Z,14.14
2018-04-24T20:03:17.938Z,14.07
2018-04-24T20:05:46.260Z,14.03
2018-04-24T20:08:14.584Z,13.94
2018-04-24T20:10:42.916Z,13.88
2018-04-24T20:13:11.286Z,13.85
2018-04-24T20:15:39.609Z,13.76
2018-04-24T20:18:07.908Z,13.72
2018-04-24T20:20:36.309Z,13.64
2018-04-24T20:23:04.671Z,13.58
2018-04-24T20:25:32.963Z,13.52
2018-04-24T20:28:01.324Z,13.49
2018-04-24T20:30:29.642Z,13.44
2018-04-24T20:32:57.956Z,13.40
2018-04-24T20:35:26.306Z,13.34
2018-04-24T20:37:55.590Z,13.28
2018-04-24T20:40:23.947Z,13.21
2018-04-24T20:42:52.285Z,13.14
2018-04-24T20:45:20.587Z,13.15
2018-04-24T20:47:48.912Z,13.14
2018-04-24T20:50:17.227Z,13.08
2018-04-24T20:52:45.551Z,13.05
2018-04-24T20:55:13.977Z,13.06
2018-04-24T20:57:42.377Z,13.01
2018-04-24T21:00:10.685Z,12.93
2018-04-24T21:02:39.015Z,12.93
2018-04-24T21:05:07.329Z,12.90
2018-04-24T21:07:35.640Z,12.91
2018-04-24T21:10:03.959Z,12.89
2018-04-24T21:12:32.289Z,12.81
2018-04-24T21:15:00.620Z,12.76
2018-04-24T21:17:28.927Z,12.70
2018-04-24T21:19:57.252Z,12.64
2018-04-24T21:22:25.596Z,12.64
2018-04-24T21:24:53.931Z,12.66
2018-04-24T21:27:22.245Z,12.72
2018-04-24T21:29:50.563Z,12.75
2018-04-24T21:32:18.875Z,12.73
2018-04-24T21:34:47.184Z,12.73
2018-04-24T21:37:16.109Z,12.67
2018-04-24T21:39:44.432Z,12.70
2018-04-24T21:42:12.759Z,12.63
2018-04-24T21:44:41.087Z,12.59
2018-04-24T21:47:09.397Z,12.64
2018-04-24T21:49:37.745Z,12.60
2018-04-24T21:52:06.060Z,12.54
2018-04-24T21:54:34.467Z,12.57
2018-04-24T21:57:02.780Z,12.65
2018-04-24T21:59:31.105Z,12.71
2018-04-24T22:01:59.462Z,12.72
2018-04-24T22:04:27.782Z,12.75
2018-04-24T22:06:56.187Z,12.75
2018-04-24T22:09:24.501Z,12.79
2018-04-24T22:11:52.809Z,12.81
2018-04-24T22:14:21.162Z,12.83
2018-04-24T22:16:49.489Z,12.87
2018-04-24T22:19:17.813Z,12.84
2018-04-24T22:21:46.132Z,12.83
2018-04-24T22:24:14.450Z,12.87
2018-04-24T22:26:42.815Z,12.86
2018-04-24T22:29:11.174Z,12.86
2018-04-24T22:31:39.509Z,12.82
2018-04-24T22:34:07.833Z,12.76
2018-04-24T22:36:36.145Z,12.72
2018-04-24T22:39:04.489Z,12.67
2018-04-24T22:41:32.810Z,12.64
2018-04-24T22:44:01.165Z,12.63
2018-04-24T22:46:29.551Z,12.61
2018-04-24T22:48:57.877Z,12.60
2018-04-24T22:51:26.196Z,12.55
2018-04-24T22:53:54.525Z,12.47
2018-04-24T22:56:22.850Z,12.44
2018-04-24T22:58:51.163Z,12.45
2018-04-24T23:01:19.527Z,12.42
2018-04-24T23:03:47.866Z,12.45
2018-04-24T23:06:16.232Z,12.46
2018-04-24T23:08:44.584Z,12.48
2018-04-24T23:11:24.697Z,12.38
2018-04-24T23:14:04.863Z,12.39
2018-04-24T23:16:45.208Z,12.34
2018-04-24T23:19:28.720Z,12.34
2018-04-24T23:21:56.612Z,12.26
2018-04-24T23:24:24.946Z,12.28
2018-04-24T23:26:53.293Z,12.30
2018-04-24T23:29:21.620Z,12.26
2018-04-24T23:31:49.972Z,12.18
2018-04-24T23:34:18.294Z,12.18
2018-04-24T23:36:46.650Z,12.09
2018-04-24T23:39:14.981Z,12.36
2018-04-24T23:41:43.339Z,12.24
2018-04-24T23:44:11.645Z,12.23
2018-04-24T23:46:40.025Z,12.15
2018-04-24T23:49:08.340Z,12.13
2018-04-24T23:51:36.648Z,12.07
2018-04-24T23:54:04.983Z,12.07
2018-04-24T23:56:34.927Z,12.08
2018-04-24T23:59:03.297Z,12.01
